createdAt,value
2023-12-08T00:01:14.519Z,10.93
2023-12-08T00:03:42.725Z,10.23
2023-12-08T00:06:12.043Z,10.53
2023-12-08T00:08:40.326Z,10.20
2023-12-08T00:11:09.552Z,9.37
2023-12-08T00:13:39.338Z,10.10
2023-12-08T00:16:10.084Z,9.97
2023-12-08T00:18:38.705Z,9.93
2023-12-08T00:21:07.481Z,11.97
2023-12-08T00:23:36.048Z,10.43
2023-12-08T00:26:04.483Z,11.30
2023-12-08T00:28:32.561Z,12.87
2023-12-08T00:31:02.010Z,11.53
2023-12-08T00:33:30.256Z,11.20
2023-12-08T00:35:59.089Z,11.40
2023-12-08T00:38:27.603Z,11.47
2023-12-08T00:40:57.756Z,13.03
2023-12-08T00:43:26.012Z,10.57
2023-12-08T00:45:54.979Z,11.77
2023-12-08T00:48:23.579Z,11.90
2023-12-08T00:50:51.693Z,12.23
2023-12-08T00:53:19.834Z,13.00
2023-12-08T00:55:47.982Z,14.63
2023-12-08T00:58:18.033Z,14.10
2023-12-08T01:00:46.678Z,13.80
2023-12-08T01:03:15.594Z,13.03
2023-12-08T01:05:45.279Z,13.33
2023-12-08T01:08:13.386Z,13.60
2023-12-08T01:10:41.377Z,13.33
2023-12-08T01:13:09.511Z,13.17
2023-12-08T01:15:37.739Z,13.33
2023-12-08T01:18:05.983Z,13.33
2023-12-08T01:20:34.481Z,12.63
2023-12-08T01:23:04.011Z,13.07
2023-12-08T01:25:32.142Z,12.50
2023-12-08T01:28:00.559Z,11.10
2023-12-08T01:30:28.972Z,11.87
2023-12-08T01:32:57.178Z,12.13
2023-12-08T01:35:25.237Z,12.70
2023-12-08T01:37:53.324Z,12.33
2023-12-08T01:40:22.764Z,11.50
2023-12-08T01:42:50.727Z,11.87
2023-12-08T01:45:18.893Z,12.03
2023-12-08T01:47:48.786Z,10.53
2023-12-08T01:50:18.075Z,11.30
2023-12-08T01:52:46.651Z,10.17
2023-12-08T01:55:14.949Z,10.33
2023-12-08T01:57:44.567Z,9.77
2023-12-08T02:00:13.850Z,11.17
2023-12-08T02:02:44.601Z,10.13
2023-12-08T02:05:13.101Z,9.30
2023-12-08T02:07:41.316Z,9.30
2023-12-08T02:10:09.833Z,8.67
2023-12-08T02:12:38.041Z,9.40
2023-12-08T02:15:08.537Z,8.13
2023-12-08T02:17:39.508Z,9.83
2023-12-08T02:20:10.854Z,10.23
2023-12-08T02:22:38.941Z,8.33
2023-12-08T02:25:09.170Z,8.67
2023-12-08T02:27:37.345Z,7.30
2023-12-08T02:30:06.457Z,8.50
2023-12-08T02:32:40.908Z,7.57
2023-12-08T02:35:10.647Z,8.77
2023-12-08T02:37:40.929Z,10.90
2023-12-08T02:40:11.137Z,7.47
2023-12-08T02:42:39.424Z,8.27
2023-12-08T02:45:08.632Z,8.03
2023-12-08T02:47:36.858Z,7.17
2023-12-08T02:50:05.677Z,7.77
2023-12-08T02:52:34.079Z,7.20
2023-12-08T02:55:02.473Z,9.03
2023-12-08T02:57:32.113Z,8.17
2023-12-08T03:00:00.305Z,7.50
2023-12-08T03:02:28.484Z,8.10
2023-12-08T03:04:56.646Z,9.10
2023-12-08T03:07:25.021Z,7.93
2023-12-08T03:09:53.318Z,7.27
2023-12-08T03:12:21.459Z,8.03
2023-12-08T03:14:50.882Z,8.40
2023-12-08T03:17:19.050Z,8.17
2023-12-08T03:19:47.175Z,8.03
2023-12-08T03:22:15.521Z,7.97
2023-12-08T03:24:43.617Z,8.47
2023-12-08T03:27:11.776Z,8.10
2023-12-08T03:29:41.397Z,8.77
2023-12-08T03:32:10.967Z,7.53
2023-12-08T03:34:39.942Z,8.00
2023-12-08T03:37:08.172Z,8.80
2023-12-08T03:39:36.201Z,7.83
2023-12-08T03:42:04.757Z,9.47
2023-12-08T03:44:32.869Z,8.60
2023-12-08T03:47:00.992Z,9.80
2023-12-08T03:49:30.669Z,10.40
2023-12-08T03:51:58.837Z,9.67
2023-12-08T03:54:27.241Z,9.57
2023-12-08T03:56:55.319Z,9.23
2023-12-08T03:59:23.520Z,9.47
2023-12-08T04:01:54.022Z,10.03
2023-12-08T04:04:26.136Z,8.97
2023-12-08T04:06:57.382Z,9.77
2023-12-08T04:09:28.226Z,9.77
2023-12-08T04:11:57.148Z,8.50
2023-12-08T04:14:25.265Z,8.03
2023-12-08T04:16:53.567Z,8.53
2023-12-08T04:19:22.091Z,8.97
2023-12-08T04:21:50.252Z,8.60
2023-12-08T04:24:19.843Z,8.00
2023-12-08T04:26:48.170Z,8.27
2023-12-08T04:29:16.506Z,8.03
2023-12-08T04:31:44.586Z,8.63
2023-12-08T04:34:13.020Z,8.43
2023-12-08T04:36:41.194Z,8.07
2023-12-08T04:39:10.037Z,7.40
2023-12-08T04:41:39.577Z,7.43
2023-12-08T04:44:07.640Z,8.17
2023-12-08T04:46:35.821Z,7.50
2023-12-08T04:49:04.205Z,9.23
2023-12-08T04:51:32.346Z,8.23
2023-12-08T04:54:00.573Z,7.27
2023-12-08T04:56:28.720Z,9.10
2023-12-08T04:58:58.075Z,8.53
2023-12-08T05:01:26.214Z,10.30
2023-12-08T05:03:54.496Z,10.13
2023-12-08T05:06:24.549Z,9.37
2023-12-08T05:08:52.822Z,8.43
2023-12-08T05:11:20.966Z,8.67
2023-12-08T05:13:49.088Z,8.60
2023-12-08T05:16:18.610Z,9.57
2023-12-08T05:18:46.822Z,9.60
2023-12-08T05:21:15.176Z,9.73
2023-12-08T05:23:43.353Z,8.67
2023-12-08T05:26:11.410Z,9.33
2023-12-08T05:28:39.458Z,11.73
2023-12-08T05:31:08.001Z,10.30
2023-12-08T05:33:37.535Z,9.93
2023-12-08T05:36:07.080Z,9.47
2023-12-08T05:38:35.381Z,9.57
2023-12-08T05:41:04.535Z,11.83
2023-12-08T05:43:32.647Z,11.87
2023-12-08T05:46:00.699Z,11.73
2023-12-08T05:48:28.887Z,10.77
2023-12-08T05:50:58.590Z,10.17
2023-12-08T05:53:26.782Z,11.27
2023-12-08T05:55:54.884Z,12.53
2023-12-08T05:58:25.384Z,10.50
2023-12-08T06:00:53.612Z,10.80
2023-12-08T06:03:21.677Z,11.53
2023-12-08T06:05:50.128Z,10.37
2023-12-08T06:08:19.645Z,9.17
2023-12-08T06:10:47.995Z,10.50
2023-12-08T06:13:16.021Z,9.77
2023-12-08T06:15:44.080Z,10.30
2023-12-08T06:18:12.957Z,8.67
2023-12-08T06:20:41.048Z,9.53
2023-12-08T06:23:09.204Z,9.73
2023-12-08T06:25:38.600Z,8.47
2023-12-08T06:28:07.341Z,9.67
2023-12-08T06:30:35.466Z,8.47
2023-12-08T06:33:03.729Z,9.27
2023-12-08T06:35:31.865Z,10.13
2023-12-08T06:37:59.884Z,9.87
2023-12-08T06:40:27.996Z,10.40
2023-12-08T06:42:57.480Z,10.30
2023-12-08T06:45:25.483Z,10.70
2023-12-08T06:47:54.852Z,9.43
2023-12-08T06:50:23.767Z,9.87
2023-12-08T06:52:52.837Z,8.83
2023-12-08T06:55:20.883Z,9.70
2023-12-08T06:57:48.973Z,10.37
2023-12-08T07:00:19.295Z,9.83
2023-12-08T07:02:47.731Z,9.37
2023-12-08T07:05:20.598Z,9.60
2023-12-08T07:07:49.304Z,9.10
2023-12-08T07:10:17.541Z,9.33
2023-12-08T07:12:46.150Z,14.30
2023-12-08T07:15:14.393Z,19.93
2023-12-08T07:17:44.009Z,16.53
2023-12-08T09:05:42.458Z,12.90
2023-12-08T09:08:11.364Z,11.47
2023-12-08T09:10:41.263Z,11.67
2023-12-08T09:13:09.489Z,10.73
2023-12-08T09:15:37.482Z,11.17
2023-12-08T09:18:06.213Z,9.60
2023-12-08T09:20:34.326Z,11.83
2023-12-08T09:23:03.845Z,11.90
2023-12-08T09:25:31.864Z,11.93
2023-12-08T09:28:00.071Z,10.83
2023-12-08T09:30:28.502Z,12.20
2023-12-08T09:32:56.938Z,12.10
2023-12-08T09:35:25.182Z,12.90
2023-12-08T09:37:53.169Z,15.50
2023-12-08T09:40:24.994Z,16.23
2023-12-08T09:42:58.187Z,15.33
2023-12-08T09:45:26.507Z,13.30
2023-12-08T09:47:56.795Z,15.83
2023-12-08T09:50:25.414Z,14.13
2023-12-08T09:52:54.888Z,13.77
2023-12-08T09:55:24.717Z,15.40
2023-12-08T09:57:54.284Z,14.50
2023-12-08T10:00:23.666Z,15.10
2023-12-08T10:02:52.117Z,15.13
2023-12-08T10:05:22.168Z,15.37
2023-12-08T10:07:52.874Z,14.33
2023-12-08T10:10:22.893Z,15.03
2023-12-08T10:12:52.684Z,15.80
2023-12-08T10:15:20.854Z,14.13
2023-12-08T10:17:50.754Z,14.33
2023-12-08T10:20:21.048Z,14.37
2023-12-08T10:22:50.499Z,15.03
2023-12-08T10:25:21.258Z,13.57
2023-12-08T10:27:51.250Z,14.13
2023-12-08T10:30:23.385Z,14.77
2023-12-08T10:32:51.073Z,14.40
2023-12-08T10:35:19.680Z,14.70
2023-12-08T10:37:47.682Z,14.97
2023-12-08T10:40:19.906Z,14.47
2023-12-08T10:42:50.007Z,14.93
2023-12-08T10:45:18.589Z,15.23
2023-12-08T10:47:51.780Z,14.67
2023-12-08T10:50:22.369Z,14.50
2023-12-08T10:52:51.847Z,13.47
2023-12-08T10:55:20.289Z,14.67
2023-12-08T10:57:55.003Z,14.13
2023-12-08T11:00:25.298Z,13.37
2023-12-08T11:02:55.014Z,13.60
2023-12-08T11:05:32.303Z,13.70
2023-12-08T11:08:02.771Z,13.47
2023-12-08T11:10:33.496Z,13.47
2023-12-08T11:13:09.115Z,12.80
2023-12-08T11:15:41.647Z,13.70
2023-12-08T11:18:22.526Z,13.63
2023-12-08T11:20:51.028Z,13.80
2023-12-08T11:23:20.398Z,14.47
2023-12-08T11:25:57.850Z,13.67
2023-12-08T11:28:34.729Z,13.40
2023-12-08T11:31:08.672Z,14.20
2023-12-08T11:33:45.270Z,14.63
2023-12-08T11:36:19.362Z,15.73
2023-12-08T11:38:48.782Z,16.07
2023-12-08T11:41:19.476Z,15.47
2023-12-08T11:43:48.096Z,16.20
2023-12-08T11:46:17.050Z,15.60
2023-12-08T11:48:50.799Z,15.93
2023-12-08T11:51:18.944Z,15.63
2023-12-08T11:53:55.423Z,15.53
2023-12-08T11:56:40.613Z,14.63
2023-12-08T11:59:08.895Z,15.73
2023-12-08T12:01:39.727Z,14.30
2023-12-08T12:04:11.189Z,15.53
2023-12-08T12:06:40.174Z,19.63
2023-12-08T12:09:09.170Z,35.10
2023-12-08T12:11:39.293Z,32.70
2023-12-08T12:14:09.305Z,32.87
2023-12-08T12:16:37.825Z,21.17
2023-12-08T12:19:06.112Z,29.30
2023-12-08T12:21:35.897Z,18.40
2023-12-08T12:24:03.943Z,17.23
2023-12-08T12:26:32.050Z,15.13
2023-12-08T12:29:00.413Z,20.70
2023-12-08T12:31:28.513Z,34.03
2023-12-08T12:33:56.590Z,25.77
2023-12-08T12:36:24.696Z,15.57
2023-12-08T12:38:55.203Z,16.83
2023-12-08T12:41:27.632Z,15.43
2023-12-08T12:43:58.897Z,18.10
2023-12-08T12:46:27.940Z,19.37
2023-12-08T12:48:56.832Z,16.47
2023-12-08T12:51:36.552Z,16.60
2023-12-08T12:54:07.189Z,16.27
2023-12-08T12:56:35.869Z,14.60
2023-12-08T12:59:05.106Z,15.87
2023-12-08T13:01:33.618Z,18.20
2023-12-08T13:04:02.496Z,15.50
2023-12-08T13:06:33.198Z,17.20
2023-12-08T13:09:02.137Z,17.60
2023-12-08T13:11:31.648Z,14.50
2023-12-08T13:13:59.993Z,14.90
2023-12-08T13:16:28.642Z,16.47
2023-12-08T13:18:56.818Z,17.03
2023-12-08T13:21:25.365Z,17.37
2023-12-08T13:23:53.462Z,17.90
2023-12-08T13:26:21.671Z,17.63
2023-12-08T13:28:52.241Z,16.47
2023-12-08T13:31:20.384Z,20.17
2023-12-08T13:33:48.548Z,17.93
2023-12-08T13:36:16.821Z,17.57
2023-12-08T13:38:44.994Z,15.13
2023-12-08T13:41:13.085Z,26.77
2023-12-08T13:43:41.242Z,18.43
2023-12-08T13:46:10.689Z,16.40
2023-12-08T13:48:39.025Z,16.27
2023-12-08T13:53:41.520Z,16.40
2023-12-08T13:56:10.054Z,18.20
2023-12-08T13:58:38.159Z,16.80
2023-12-08T14:01:06.346Z,18.07
2023-12-08T14:03:35.987Z,17.10
2023-12-08T14:06:05.139Z,18.27
2023-12-08T14:08:35.090Z,16.73
2023-12-08T14:11:03.127Z,16.43
2023-12-08T14:13:31.201Z,17.70
2023-12-08T14:15:59.528Z,18.80
2023-12-08T14:18:28.097Z,19.00
2023-12-08T14:20:57.847Z,18.83
2023-12-08T14:23:25.964Z,18.80
2023-12-08T14:25:54.294Z,18.77
2023-12-08T14:28:22.824Z,20.87
2023-12-08T14:30:50.894Z,17.47
2023-12-08T14:33:19.097Z,17.80
2023-12-08T14:35:47.444Z,17.63
2023-12-08T14:38:17.077Z,18.37
2023-12-08T14:40:46.635Z,19.50
2023-12-08T14:43:14.806Z,17.43
2023-12-08T14:45:43.006Z,18.27
2023-12-08T14:48:11.142Z,17.40
2023-12-08T14:50:39.782Z,16.67
2023-12-08T14:53:07.791Z,17.50
2023-12-08T14:55:37.449Z,17.87
2023-12-08T14:58:05.858Z,17.73
2023-12-08T15:00:35.644Z,17.67
2023-12-08T15:05:31.968Z,16.83
2023-12-08T15:08:00.053Z,16.90
2023-12-08T15:10:28.114Z,17.03
2023-12-08T15:12:57.612Z,17.37
2023-12-08T15:15:34.917Z,17.13
2023-12-08T15:18:10.842Z,16.93
2023-12-08T15:20:40.005Z,17.77
2023-12-08T15:23:08.001Z,19.57
2023-12-08T15:25:37.593Z,19.80
2023-12-08T15:28:07.815Z,21.73
2023-12-08T15:30:36.182Z,22.43
2023-12-08T15:33:05.132Z,22.87
2023-12-08T15:35:33.350Z,22.23
2023-12-08T15:38:01.532Z,22.90
2023-12-08T15:40:29.664Z,21.40
2023-12-08T15:42:57.883Z,21.20
2023-12-08T15:45:27.230Z,19.73
2023-12-08T15:47:55.471Z,20.37
2023-12-08T15:50:24.028Z,18.97
2023-12-08T15:52:52.263Z,18.17
2023-12-08T15:55:20.879Z,18.73
2023-12-08T15:57:49.500Z,18.10
2023-12-08T16:00:18.589Z,17.07
2023-12-08T16:02:48.019Z,18.00
2023-12-08T16:05:16.366Z,17.87
2023-12-08T16:07:44.659Z,17.13
2023-12-08T16:10:12.704Z,17.30
2023-12-08T16:12:40.666Z,17.77
2023-12-08T16:15:11.755Z,16.03
2023-12-08T16:17:40.051Z,17.00
2023-12-08T16:20:10.632Z,16.73
2023-12-08T16:22:41.781Z,16.57
2023-12-08T16:25:11.784Z,17.07
2023-12-08T16:27:39.924Z,16.63
2023-12-08T16:30:09.614Z,16.10
2023-12-08T16:32:41.496Z,17.83
2023-12-08T16:35:14.554Z,17.80
2023-12-08T16:37:42.714Z,17.03
2023-12-08T16:40:13.217Z,18.57
2023-12-08T16:42:41.434Z,18.63
2023-12-08T16:45:10.207Z,18.27
2023-12-08T16:47:38.361Z,17.43
2023-12-08T16:50:07.623Z,18.33
2023-12-08T16:52:37.016Z,18.40
2023-12-08T16:55:07.132Z,17.83
2023-12-08T16:57:35.314Z,18.23
2023-12-08T17:00:05.078Z,18.80
2023-12-08T17:02:33.184Z,17.50
2023-12-08T17:05:01.309Z,18.20
2023-12-08T17:07:29.399Z,19.47
2023-12-08T17:09:58.787Z,20.07
2023-12-08T17:12:27.263Z,19.90
2023-12-08T17:14:55.497Z,21.20
2023-12-08T17:17:23.616Z,19.67
2023-12-08T17:19:51.809Z,18.90
2023-12-08T17:22:19.803Z,18.33
2023-12-08T17:24:48.037Z,20.73
2023-12-08T17:27:17.654Z,19.90
2023-12-08T17:29:45.876Z,20.47
2023-12-08T17:32:14.223Z,21.10
2023-12-08T17:34:42.391Z,19.73
2023-12-08T17:37:10.608Z,19.73
2023-12-08T17:39:38.675Z,18.27
2023-12-08T17:42:07.000Z,19.97
2023-12-08T17:44:36.632Z,20.73
2023-12-08T17:47:05.683Z,21.60
2023-12-08T17:49:33.893Z,20.33
2023-12-08T17:52:03.053Z,20.20
2023-12-08T17:54:31.311Z,20.93
2023-12-08T17:57:00.115Z,20.63
2023-12-08T17:59:28.170Z,21.13
2023-12-08T18:01:58.290Z,21.17
2023-12-08T18:04:26.387Z,21.70
2023-12-08T18:06:54.584Z,21.40
2023-12-08T18:09:23.464Z,21.27
2023-12-08T18:11:52.041Z,21.17
2023-12-08T18:14:20.439Z,21.70
2023-12-08T18:16:50.924Z,22.17
2023-12-08T18:19:20.796Z,22.37
2023-12-08T18:21:49.732Z,21.70
2023-12-08T18:24:18.637Z,23.13
2023-12-08T18:26:46.619Z,22.27
2023-12-08T18:29:15.582Z,21.67
2023-12-08T18:31:43.707Z,21.63
2023-12-08T18:34:12.002Z,22.27
2023-12-08T18:36:41.867Z,20.73
2023-12-08T18:39:10.048Z,21.20
2023-12-08T18:41:38.037Z,21.63
2023-12-08T18:44:06.966Z,22.33
2023-12-08T18:46:35.480Z,21.57
2023-12-08T18:49:04.696Z,21.63
2023-12-08T18:51:33.654Z,23.13
2023-12-08T18:54:03.213Z,21.83
2023-12-08T18:56:31.437Z,22.20
2023-12-08T18:58:59.552Z,22.63
2023-12-08T19:01:28.689Z,21.47
2023-12-08T19:03:56.989Z,23.03
2023-12-08T19:06:25.338Z,21.90
2023-12-08T19:08:53.492Z,22.07
2023-12-08T19:11:22.917Z,24.50
2023-12-08T19:13:50.989Z,23.53
2023-12-08T19:16:19.138Z,23.37
2023-12-08T19:18:48.121Z,23.60
2023-12-08T19:21:16.373Z,21.67
2023-12-08T19:23:44.640Z,22.30
2023-12-08T19:26:12.736Z,22.43
2023-12-08T19:28:42.382Z,22.97
2023-12-08T19:31:10.649Z,23.27
2023-12-08T19:33:38.905Z,22.90
2023-12-08T19:36:08.163Z,23.23
2023-12-08T19:38:36.327Z,23.20
2023-12-08T19:41:04.730Z,23.17
2023-12-08T19:43:32.883Z,24.93
2023-12-08T19:46:02.489Z,24.30
2023-12-08T19:48:30.629Z,23.50
2023-12-08T19:50:58.780Z,23.50
2023-12-08T19:53:26.924Z,23.40
2023-12-08T19:55:54.944Z,24.60
2023-12-08T19:58:23.795Z,24.30
2023-12-08T20:00:52.002Z,24.90
2023-12-08T20:03:21.470Z,23.20
2023-12-08T20:05:50.171Z,23.50
2023-12-08T20:08:19.153Z,23.03
2023-12-08T20:10:47.160Z,22.67
2023-12-08T20:13:15.311Z,23.70
2023-12-08T20:15:45.710Z,22.97
2023-12-08T20:18:14.088Z,22.97
2023-12-08T20:20:43.832Z,22.87
2023-12-08T20:23:12.573Z,23.77
2023-12-08T20:25:40.796Z,24.40
2023-12-08T20:28:09.717Z,23.70
2023-12-08T20:30:39.557Z,25.03
2023-12-08T20:33:09.850Z,22.83
2023-12-08T20:35:38.040Z,24.10
2023-12-08T20:38:07.441Z,23.53
2023-12-08T20:40:35.499Z,25.30
2023-12-08T20:43:04.069Z,24.33
2023-12-08T20:45:32.305Z,26.40
2023-12-08T20:48:00.565Z,26.70
2023-12-08T20:50:28.848Z,27.83
2023-12-08T20:52:56.955Z,24.83
2023-12-08T20:55:26.329Z,25.53
2023-12-08T20:57:54.387Z,24.50
2023-12-08T21:00:22.852Z,25.07
2023-12-08T21:02:51.804Z,27.13
2023-12-08T21:05:20.103Z,26.67
2023-12-08T21:07:48.307Z,26.27
2023-12-08T21:10:16.608Z,26.33
2023-12-08T21:12:45.929Z,25.97
2023-12-08T21:15:14.809Z,26.03
2023-12-08T21:17:43.044Z,24.97
2023-12-08T21:20:11.906Z,25.83
2023-12-08T21:22:41.435Z,26.13
2023-12-08T21:25:11.122Z,25.77
2023-12-08T21:27:40.247Z,27.43
2023-12-08T21:30:10.710Z,25.83
2023-12-08T21:32:39.779Z,25.20
2023-12-08T21:35:08.856Z,26.63
2023-12-08T21:37:38.208Z,26.40
2023-12-08T21:40:07.383Z,27.13
2023-12-08T21:42:35.623Z,27.93
2023-12-08T21:45:04.016Z,26.97
2023-12-08T21:47:33.921Z,27.90
2023-12-08T21:50:04.084Z,27.77
2023-12-08T21:52:32.262Z,27.17
2023-12-08T21:55:00.290Z,25.43
2023-12-08T21:57:28.697Z,26.77
2023-12-08T21:59:56.979Z,26.67
2023-12-08T22:02:25.011Z,27.10
2023-12-08T22:04:54.542Z,26.50
2023-12-08T22:07:22.583Z,26.10
2023-12-08T22:09:51.902Z,26.10
2023-12-08T22:12:20.571Z,26.43
2023-12-08T22:14:48.561Z,26.73
2023-12-08T22:17:16.706Z,26.03
2023-12-08T22:19:44.917Z,26.23
2023-12-08T22:22:14.387Z,27.13
2023-12-08T22:24:42.592Z,26.47
2023-12-08T22:27:10.610Z,25.53
2023-12-08T22:29:38.745Z,28.10
2023-12-08T22:32:09.770Z,27.10
2023-12-08T22:34:38.396Z,25.40
2023-12-08T22:37:07.162Z,27.13
2023-12-08T22:39:36.639Z,26.97
2023-12-08T22:42:05.033Z,26.03
2023-12-08T22:44:33.044Z,28.47
2023-12-08T22:47:01.249Z,25.97
2023-12-08T22:49:29.332Z,27.97
2023-12-08T22:51:59.343Z,24.80
2023-12-08T22:54:28.392Z,24.63
2023-12-08T22:56:58.081Z,25.17
2023-12-08T22:59:26.262Z,26.70
2023-12-08T23:01:54.285Z,24.63
2023-12-08T23:04:22.557Z,24.23
2023-12-08T23:06:51.356Z,26.67
2023-12-08T23:09:19.378Z,25.47
2023-12-08T23:11:47.500Z,26.20
2023-12-08T23:14:16.896Z,27.23
2023-12-08T23:16:46.025Z,28.30
2023-12-08T23:19:14.221Z,27.47
2023-12-08T23:21:42.426Z,28.17
2023-12-08T23:24:10.535Z,27.93
2023-12-08T23:26:40.757Z,29.33
2023-12-08T23:29:08.963Z,31.30
2023-12-08T23:31:38.697Z,28.10
2023-12-08T23:34:07.474Z,31.83
2023-12-08T23:36:35.914Z,28.30
2023-12-08T23:39:04.402Z,29.60
2023-12-08T23:41:32.757Z,31.50
2023-12-08T23:44:00.860Z,30.63
2023-12-08T23:46:28.870Z,30.23
2023-12-08T23:48:58.687Z,30.17
2023-12-08T23:51:27.075Z,28.30
2023-12-08T23:53:55.200Z,30.77
2023-12-08T23:56:24.018Z,29.13
2023-12-08T23:58:52.365Z,28.20
